sensor_id;sensor_type;location;lat;lon;timestamp;temperature;humidity
8043;DHT22;4064;48.132;11.366;2022-10-29T00:00:32;12.70;99.90
8043;DHT22;4064;48.132;11.366;2022-10-29T00:02:58;12.70;99.90
8043;DHT22;4064;48.132;11.366;2022-10-29T00:05:23;12.70;99.90
8043;DHT22;4064;48.132;11.366;2022-10-29T00:07:49;12.70;99.90
8043;DHT22;4064;48.132;11.366;2022-10-29T00:10:15;12.70;99.90
8043;DHT22;4064;48.132;11.366;2022-10-29T00:12:40;12.70;99.90
8043;DHT22;4064;48.132;11.366;2022-10-29T00:15:06;12.70;99.90
8043;DHT22;4064;48.132;11.366;2022-10-29T00:17:33;12.60;99.90
8043;DHT22;4064;48.132;11.366;2022-10-29T00:19:58;12.60;99.90
8043;DHT22;4064;48.132;11.366;2022-10-29T00:22:24;12.50;99.90
8043;DHT22;4064;48.132;11.366;2022-10-29T00:24:50;12.50;99.90
8043;DHT22;4064;48.132;11.366;2022-10-29T00:27:15;12.40;99.90
8043;DHT22;4064;48.132;11.366;2022-10-29T00:29:41;12.30;99.90
8043;DHT22;4064;48.132;11.366;2022-10-29T00:32:06;12.30;99.90
8043;DHT22;4064;48.132;11.366;2022-10-29T00:34:34;12.30;99.90
8043;DHT22;4064;48.132;11.366;2022-10-29T00:37:01;12.20;99.90
8043;DHT22;4064;48.132;11.366;2022-10-29T00:39:27;12.10;99.90
8043;DHT22;4064;48.132;11.366;2022-10-29T00:41:54;12.10;99.90
8043;DHT22;4064;48.132;11.366;2022-10-29T00:44:33;12.00;99.90
8043;DHT22;4064;48.132;11.366;2022-10-29T00:49:49;12.00;99.90
8043;DHT22;4064;48.132;11.366;2022-10-29T00:52:18;11.90;99.90
8043;DHT22;4064;48.132;11.366;2022-10-29T00:54:46;11.90;99.90
8043;DHT22;4064;48.132;11.366;2022-10-29T00:57:17;11.80;99.90
8043;DHT22;4064;48.132;11.366;2022-10-29T00:59:46;11.70;99.90
8043;DHT22;4064;48.132;11.366;2022-10-29T01:02:13;11.70;99.90
8043;DHT22;4064;48.132;11.366;2022-10-29T01:04:40;11.70;99.90
8043;DHT22;4064;48.132;11.366;2022-10-29T01:07:07;11.70;99.90
8043;DHT22;4064;48.132;11.366;2022-10-29T01:09:32;11.60;99.90
8043;DHT22;4064;48.132;11.366;2022-10-29T01:22:57;11.40;99.90
8043;DHT22;4064;48.132;11.366;2022-10-29T01:36:39;11.20;99.90
8043;DHT22;4064;48.132;11.366;2022-10-29T01:42:35;11.00;99.90
8043;DHT22;4064;48.132;11.366;2022-10-29T01:45:18;11.00;99.90
8043;DHT22;4064;48.132;11.366;2022-10-29T01:47:54;11.00;99.90
8043;DHT22;4064;48.132;11.366;2022-10-29T01:50:22;11.00;99.90
8043;DHT22;4064;48.132;11.366;2022-10-29T01:52:49;11.00;99.90
8043;DHT22;4064;48.132;11.366;2022-10-29T01:55:20;11.10;99.90
8043;DHT22;4064;48.132;11.366;2022-10-29T01:57:46;11.10;99.90
8043;DHT22;4064;48.132;11.366;2022-10-29T02:00:14;11.10;99.90
8043;DHT22;4064;48.132;11.366;2022-10-29T02:03:17;11.10;99.90
8043;DHT22;4064;48.132;11.366;2022-10-29T02:06:03;11.10;99.90
8043;DHT22;4064;48.132;11.366;2022-10-29T02:08:40;11.20;99.90
8043;DHT22;4064;48.132;11.366;2022-10-29T02:14:05;11.20;99.90
8043;DHT22;4064;48.132;11.366;2022-10-29T02:16:32;11.20;99.90
8043;DHT22;4064;48.132;11.366;2022-10-29T02:18:58;11.20;99.90
8043;DHT22;4064;48.132;11.366;2022-10-29T02:21:25;11.20;99.90
8043;DHT22;4064;48.132;11.366;2022-10-29T02:23:50;11.10;99.90
8043;DHT22;4064;48.132;11.366;2022-10-29T02:26:16;11.10;99.90
8043;DHT22;4064;48.132;11.366;2022-10-29T02:28:42;11.00;99.90
8043;DHT22;4064;48.132;11.366;2022-10-29T02:31:08;11.00;99.90
8043;DHT22;4064;48.132;11.366;2022-10-29T02:33:34;11.00;99.90
8043;DHT22;4064;48.132;11.366;2022-10-29T02:36:00;11.00;99.90
8043;DHT22;4064;48.132;11.366;2022-10-29T02:38:25;11.00;99.90
8043;DHT22;4064;48.132;11.366;2022-10-29T02:40:51;11.00;99.90
8043;DHT22;4064;48.132;11.366;2022-10-29T02:43:17;11.00;99.90
8043;DHT22;4064;48.132;11.366;2022-10-29T02:45:42;11.00;99.90
8043;DHT22;4064;48.132;11.366;2022-10-29T02:48:08;11.00;99.90
8043;DHT22;4064;48.132;11.366;2022-10-29T02:50:33;11.10;99.90
8043;DHT22;4064;48.132;11.366;2022-10-29T02:52:59;11.20;99.90
8043;DHT22;4064;48.132;11.366;2022-10-29T02:55:25;11.20;99.90
8043;DHT22;4064;48.132;11.366;2022-10-29T02:57:50;11.10;99.90
8043;DHT22;4064;48.132;11.366;2022-10-29T03:00:16;11.20;99.90
8043;DHT22;4064;48.132;11.366;2022-10-29T03:02:42;11.20;99.90
8043;DHT22;4064;48.132;11.366;2022-10-29T03:05:08;11.20;99.90
8043;DHT22;4064;48.132;11.366;2022-10-29T03:07:35;11.20;99.90
8043;DHT22;4064;48.132;11.366;2022-10-29T03:10:03;11.30;99.90
8043;DHT22;4064;48.132;11.366;2022-10-29T03:12:29;11.30;99.90
8043;DHT22;4064;48.132;11.366;2022-10-29T03:14:55;11.30;99.90
8043;DHT22;4064;48.132;11.366;2022-10-29T03:17:20;11.30;99.90
8043;DHT22;4064;48.132;11.366;2022-10-29T03:19:46;11.30;99.90
8043;DHT22;4064;48.132;11.366;2022-10-29T03:22:11;11.30;99.90
8043;DHT22;4064;48.132;11.366;2022-10-29T03:24:37;11.30;99.90
8043;DHT22;4064;48.132;11.366;2022-10-29T03:27:03;11.30;99.90
8043;DHT22;4064;48.132;11.366;2022-10-29T03:29:28;11.30;99.90
8043;DHT22;4064;48.132;11.366;2022-10-29T03:31:54;11.40;99.90
8043;DHT22;4064;48.132;11.366;2022-10-29T03:34:19;11.40;99.90
8043;DHT22;4064;48.132;11.366;2022-10-29T03:36:45;11.40;99.90
8043;DHT22;4064;48.132;11.366;2022-10-29T03:39:11;11.40;99.90
8043;DHT22;4064;48.132;11.366;2022-10-29T03:41:36;11.40;99.90
8043;DHT22;4064;48.132;11.366;2022-10-29T03:44:02;11.50;99.90
8043;DHT22;4064;48.132;11.366;2022-10-29T03:46:27;11.50;99.90
8043;DHT22;4064;48.132;11.366;2022-10-29T03:48:53;11.60;99.90
8043;DHT22;4064;48.132;11.366;2022-10-29T03:51:19;11.70;99.90
8043;DHT22;4064;48.132;11.366;2022-10-29T03:53:44;11.70;99.90
8043;DHT22;4064;48.132;11.366;2022-10-29T03:56:10;11.70;99.90
8043;DHT22;4064;48.132;11.366;2022-10-29T03:58:36;11.80;99.90
8043;DHT22;4064;48.132;11.366;2022-10-29T04:01:06;11.80;99.90
8043;DHT22;4064;48.132;11.366;2022-10-29T04:03:34;11.90;99.90
8043;DHT22;4064;48.132;11.366;2022-10-29T04:06:01;11.90;99.90
8043;DHT22;4064;48.132;11.366;2022-10-29T04:08:28;12.00;99.90
8043;DHT22;4064;48.132;11.366;2022-10-29T04:10:53;12.10;99.90
8043;DHT22;4064;48.132;11.366;2022-10-29T04:13:19;12.10;99.90
8043;DHT22;4064;48.132;11.366;2022-10-29T04:15:45;12.20;99.90
8043;DHT22;4064;48.132;11.366;2022-10-29T04:18:11;12.20;99.90
8043;DHT22;4064;48.132;11.366;2022-10-29T04:20:38;12.20;99.90
8043;DHT22;4064;48.132;11.366;2022-10-29T04:23:04;12.30;99.90
8043;DHT22;4064;48.132;11.366;2022-10-29T04:25:30;12.20;99.90
8043;DHT22;4064;48.132;11.366;2022-10-29T04:27:56;12.30;99.90
8043;DHT22;4064;48.132;11.366;2022-10-29T04:30:23;12.30;99.90
8043;DHT22;4064;48.132;11.366;2022-10-29T04:32:48;12.30;99.90
8043;DHT22;4064;48.132;11.366;2022-10-29T04:35:14;12.30;99.90
8043;DHT22;4064;48.132;11.366;2022-10-29T04:37:40;12.30;99.90
8043;DHT22;4064;48.132;11.366;2022-10-29T04:40:06;12.30;99.90
8043;DHT22;4064;48.132;11.366;2022-10-29T04:42:36;12.40;99.90
8043;DHT22;4064;48.132;11.366;2022-10-29T04:45:03;12.40;99.90
8043;DHT22;4064;48.132;11.366;2022-10-29T04:47:28;12.40;99.90
8043;DHT22;4064;48.132;11.366;2022-10-29T04:49:54;12.30;99.90
8043;DHT22;4064;48.132;11.366;2022-10-29T04:52:20;12.30;99.90
8043;DHT22;4064;48.132;11.366;2022-10-29T04:54:45;12.30;99.90
8043;DHT22;4064;48.132;11.366;2022-10-29T04:57:11;12.20;99.90
8043;DHT22;4064;48.132;11.366;2022-10-29T04:59:36;12.20;99.90
8043;DHT22;4064;48.132;11.366;2022-10-29T05:02:02;12.10;99.90
8043;DHT22;4064;48.132;11.366;2022-10-29T05:04:27;12.00;99.90
8043;DHT22;4064;48.132;11.366;2022-10-29T05:06:54;12.00;99.90
8043;DHT22;4064;48.132;11.366;2022-10-29T05:09:19;11.90;99.90
8043;DHT22;4064;48.132;11.366;2022-10-29T05:11:45;11.80;99.90
8043;DHT22;4064;48.132;11.366;2022-10-29T05:14:10;11.70;99.90
8043;DHT22;4064;48.132;11.366;2022-10-29T05:16:36;11.70;99.90
8043;DHT22;4064;48.132;11.366;2022-10-29T05:19:02;11.60;99.90
8043;DHT22;4064;48.132;11.366;2022-10-29T05:21:29;11.60;99.90
8043;DHT22;4064;48.132;11.366;2022-10-29T05:23:55;11.70;99.90
8043;DHT22;4064;48.132;11.366;2022-10-29T05:26:20;11.70;99.90
8043;DHT22;4064;48.132;11.366;2022-10-29T05:28:51;11.70;99.90
8043;DHT22;4064;48.132;11.366;2022-10-29T05:31:17;11.70;99.90
8043;DHT22;4064;48.132;11.366;2022-10-29T05:33:43;11.70;99.90
8043;DHT22;4064;48.132;11.366;2022-10-29T05:36:09;11.70;99.90
8043;DHT22;4064;48.132;11.366;2022-10-29T05:38:35;11.80;99.90
8043;DHT22;4064;48.132;11.366;2022-10-29T05:41:00;11.80;99.90
8043;DHT22;4064;48.132;11.366;2022-10-29T05:43:26;11.90;99.90
8043;DHT22;4064;48.132;11.366;2022-10-29T05:45:52;11.90;99.90
8043;DHT22;4064;48.132;11.366;2022-10-29T05:48:18;12.00;99.90
8043;DHT22;4064;48.132;11.366;2022-10-29T05:50:44;12.00;99.90
8043;DHT22;4064;48.132;11.366;2022-10-29T05:53:11;12.00;99.90
8043;DHT22;4064;48.132;11.366;2022-10-29T05:55:38;12.00;99.90
8043;DHT22;4064;48.132;11.366;2022-10-29T05:58:07;12.00;99.90
8043;DHT22;4064;48.132;11.366;2022-10-29T06:00:35;12.10;99.90
8043;DHT22;4064;48.132;11.366;2022-10-29T06:03:01;12.10;99.90
8043;DHT22;4064;48.132;11.366;2022-10-29T06:05:27;12.00;99.90
8043;DHT22;4064;48.132;11.366;2022-10-29T06:07:57;12.10;99.90
8043;DHT22;4064;48.132;11.366;2022-10-29T06:10:24;12.10;99.90
8043;DHT22;4064;48.132;11.366;2022-10-29T06:12:51;12.20;99.90
8043;DHT22;4064;48.132;11.366;2022-10-29T06:15:17;12.30;99.90
8043;DHT22;4064;48.132;11.366;2022-10-29T06:17:43;12.30;99.90
8043;DHT22;4064;48.132;11.366;2022-10-29T06:20:10;12.30;99.90
8043;DHT22;4064;48.132;11.366;2022-10-29T06:22:36;12.30;99.90
8043;DHT22;4064;48.132;11.366;2022-10-29T06:25:02;12.40;99.90
8043;DHT22;4064;48.132;11.366;2022-10-29T06:27:28;12.40;99.90
8043;DHT22;4064;48.132;11.366;2022-10-29T06:29:54;12.50;99.90
8043;DHT22;4064;48.132;11.366;2022-10-29T06:32:20;12.50;99.90
8043;DHT22;4064;48.132;11.366;2022-10-29T06:34:46;12.60;99.90
8043;DHT22;4064;48.132;11.366;2022-10-29T06:37:11;12.70;99.90
8043;DHT22;4064;48.132;11.366;2022-10-29T06:39:37;12.80;99.90
8043;DHT22;4064;48.132;11.366;2022-10-29T06:42:03;12.90;99.90
8043;DHT22;4064;48.132;11.366;2022-10-29T06:44:28;13.00;99.90
8043;DHT22;4064;48.132;11.366;2022-10-29T06:46:54;13.00;99.90
8043;DHT22;4064;48.132;11.366;2022-10-29T06:49:20;13.10;99.90
8043;DHT22;4064;48.132;11.366;2022-10-29T06:51:46;13.20;99.90
8043;DHT22;4064;48.132;11.366;2022-10-29T06:54:12;13.30;99.90
8043;DHT22;4064;48.132;11.366;2022-10-29T06:56:38;13.40;99.90
8043;DHT22;4064;48.132;11.366;2022-10-29T06:59:04;13.50;99.90
8043;DHT22;4064;48.132;11.366;2022-10-29T07:01:29;13.60;99.90
8043;DHT22;4064;48.132;11.366;2022-10-29T07:03:58;13.70;99.90
8043;DHT22;4064;48.132;11.366;2022-10-29T07:06:24;13.90;99.90
8043;DHT22;4064;48.132;11.366;2022-10-29T07:08:50;14.10;99.90
8043;DHT22;4064;48.132;11.366;2022-10-29T07:11:15;14.20;99.90
8043;DHT22;4064;48.132;11.366;2022-10-29T07:13:41;14.30;99.90
8043;DHT22;4064;48.132;11.366;2022-10-29T07:16:07;14.40;99.90
8043;DHT22;4064;48.132;11.366;2022-10-29T07:18:33;14.50;99.90
8043;DHT22;4064;48.132;11.366;2022-10-29T07:21:01;14.60;99.90
8043;DHT22;4064;48.132;11.366;2022-10-29T07:23:27;14.60;99.90
8043;DHT22;4064;48.132;11.366;2022-10-29T07:25:52;14.60;99.90
8043;DHT22;4064;48.132;11.366;2022-10-29T07:28:19;14.70;99.90
8043;DHT22;4064;48.132;11.366;2022-10-29T07:30:46;14.70;99.90
8043;DHT22;4064;48.132;11.366;2022-10-29T07:33:12;14.80;99.90
8043;DHT22;4064;48.132;11.366;2022-10-29T07:35:39;14.90;99.90
8043;DHT22;4064;48.132;11.366;2022-10-29T07:38:06;15.00;99.90
8043;DHT22;4064;48.132;11.366;2022-10-29T07:40:32;15.00;99.90
8043;DHT22;4064;48.132;11.366;2022-10-29T07:42:58;15.00;99.90
8043;DHT22;4064;48.132;11.366;2022-10-29T07:45:24;15.00;99.90
8043;DHT22;4064;48.132;11.366;2022-10-29T07:47:57;15.00;99.90
8043;DHT22;4064;48.132;11.366;2022-10-29T07:50:24;15.00;99.90
8043;DHT22;4064;48.132;11.366;2022-10-29T07:52:49;15.00;99.90
8043;DHT22;4064;48.132;11.366;2022-10-29T07:55:15;15.10;99.90
8043;DHT22;4064;48.132;11.366;2022-10-29T07:57:40;15.20;99.90
8043;DHT22;4064;48.132;11.366;2022-10-29T08:00:07;15.20;99.90
8043;DHT22;4064;48.132;11.366;2022-10-29T08:02:32;15.30;99.90
8043;DHT22;4064;48.132;11.366;2022-10-29T08:04:58;15.40;99.90
8043;DHT22;4064;48.132;11.366;2022-10-29T08:07:24;15.50;99.90
8043;DHT22;4064;48.132;11.366;2022-10-29T08:09:49;15.60;99.90
8043;DHT22;4064;48.132;11.366;2022-10-29T08:12:15;15.70;99.90
8043;DHT22;4064;48.132;11.366;2022-10-29T08:14:40;15.80;99.90
8043;DHT22;4064;48.132;11.366;2022-10-29T08:17:06;15.90;99.90
8043;DHT22;4064;48.132;11.366;2022-10-29T08:19:32;16.00;99.90
8043;DHT22;4064;48.132;11.366;2022-10-29T08:21:57;16.00;99.90
8043;DHT22;4064;48.132;11.366;2022-10-29T08:24:23;16.10;99.90
8043;DHT22;4064;48.132;11.366;2022-10-29T08:26:49;16.20;99.90
8043;DHT22;4064;48.132;11.366;2022-10-29T08:29:15;16.30;99.90
8043;DHT22;4064;48.132;11.366;2022-10-29T08:31:41;16.30;99.90
8043;DHT22;4064;48.132;11.366;2022-10-29T08:34:07;16.40;99.90
8043;DHT22;4064;48.132;11.366;2022-10-29T08:36:32;16.50;99.90
8043;DHT22;4064;48.132;11.366;2022-10-29T08:38:58;16.60;99.90
8043;DHT22;4064;48.132;11.366;2022-10-29T08:41:46;16.70;99.90
8043;DHT22;4064;48.132;11.366;2022-10-29T08:47:08;16.90;99.90
8043;DHT22;4064;48.132;11.366;2022-10-29T08:52:17;17.00;99.90
8043;DHT22;4064;48.132;11.366;2022-10-29T08:54:49;17.20;99.90
8043;DHT22;4064;48.132;11.366;2022-10-29T08:57:19;17.30;99.90
8043;DHT22;4064;48.132;11.366;2022-10-29T09:00:07;17.50;99.90
8043;DHT22;4064;48.132;11.366;2022-10-29T09:02:38;17.70;99.90
8043;DHT22;4064;48.132;11.366;2022-10-29T09:05:05;17.90;99.90
8043;DHT22;4064;48.132;11.366;2022-10-29T09:10:47;18.30;99.90
8043;DHT22;4064;48.132;11.366;2022-10-29T09:13:25;18.70;99.90
8043;DHT22;4064;48.132;11.366;2022-10-29T09:16:19;19.20;99.90
8043;DHT22;4064;48.132;11.366;2022-10-29T09:21:57;20.00;99.30
8043;DHT22;4064;48.132;11.366;2022-10-29T09:25:28;20.60;98.70
8043;DHT22;4064;48.132;11.366;2022-10-29T09:30:29;21.10;95.90
8043;DHT22;4064;48.132;11.366;2022-10-29T09:33:03;21.30;94.90
8043;DHT22;4064;48.132;11.366;2022-10-29T09:35:40;21.50;93.60
8043;DHT22;4064;48.132;11.366;2022-10-29T09:40:59;21.80;91.80
8043;DHT22;4064;48.132;11.366;2022-10-29T09:51:54;22.60;90.10
8043;DHT22;4064;48.132;11.366;2022-10-29T09:54:22;22.80;85.30
8043;DHT22;4064;48.132;11.366;2022-10-29T09:56:49;23.00;84.80
8043;DHT22;4064;48.132;11.366;2022-10-29T09:59:58;23.20;84.10
8043;DHT22;4064;48.132;11.366;2022-10-29T10:02:27;23.40;84.50
8043;DHT22;4064;48.132;11.366;2022-10-29T10:05:00;23.50;85.40
8043;DHT22;4064;48.132;11.366;2022-10-29T10:07:26;23.60;80.10
8043;DHT22;4064;48.132;11.366;2022-10-29T10:09:56;23.60;79.90
8043;DHT22;4064;48.132;11.366;2022-10-29T10:15:22;23.70;78.00
8043;DHT22;4064;48.132;11.366;2022-10-29T10:18:02;23.80;75.40
8043;DHT22;4064;48.132;11.366;2022-10-29T10:22:56;23.90;75.10
8043;DHT22;4064;48.132;11.366;2022-10-29T10:25:38;24.00;73.70
8043;DHT22;4064;48.132;11.366;2022-10-29T10:30:40;23.90;72.00
8043;DHT22;4064;48.132;11.366;2022-10-29T10:33:24;24.00;71.30
8043;DHT22;4064;48.132;11.366;2022-10-29T10:35:51;23.90;72.00
8043;DHT22;4064;48.132;11.366;2022-10-29T10:38:18;24.00;74.50
8043;DHT22;4064;48.132;11.366;2022-10-29T10:40:56;24.10;70.60
8043;DHT22;4064;48.132;11.366;2022-10-29T10:43:25;24.30;69.90
8043;DHT22;4064;48.132;11.366;2022-10-29T10:45:59;24.40;67.80
8043;DHT22;4064;48.132;11.366;2022-10-29T10:48:29;24.50;66.40
8043;DHT22;4064;48.132;11.366;2022-10-29T10:51:18;24.60;66.00
8043;DHT22;4064;48.132;11.366;2022-10-29T10:53:45;24.70;65.80
8043;DHT22;4064;48.132;11.366;2022-10-29T10:56:17;24.70;65.10
8043;DHT22;4064;48.132;11.366;2022-10-29T10:59:09;24.80;64.40
8043;DHT22;4064;48.132;11.366;2022-10-29T11:01:40;24.80;62.50
8043;DHT22;4064;48.132;11.366;2022-10-29T11:04:30;24.70;62.50
8043;DHT22;4064;48.132;11.366;2022-10-29T11:07:03;24.70;64.00
8043;DHT22;4064;48.132;11.366;2022-10-29T11:09:38;24.70;64.50
8043;DHT22;4064;48.132;11.366;2022-10-29T11:14:34;24.60;65.90
8043;DHT22;4064;48.132;11.366;2022-10-29T11:17:03;24.70;64.90
8043;DHT22;4064;48.132;11.366;2022-10-29T11:19:42;24.80;66.40
8043;DHT22;4064;48.132;11.366;2022-10-29T11:22:21;24.80;69.70
8043;DHT22;4064;48.132;11.366;2022-10-29T11:30:11;24.90;68.30
8043;DHT22;4064;48.132;11.366;2022-10-29T11:38:25;25.20;68.70
8043;DHT22;4064;48.132;11.366;2022-10-29T11:43:29;25.30;64.90
8043;DHT22;4064;48.132;11.366;2022-10-29T12:00:52;26.00;62.50
8043;DHT22;4064;48.132;11.366;2022-10-29T12:03:29;26.10;59.80
8043;DHT22;4064;48.132;11.366;2022-10-29T12:06:20;26.20;59.10
8043;DHT22;4064;48.132;11.366;2022-10-29T12:09:05;26.40;60.60
8043;DHT22;4064;48.132;11.366;2022-10-29T12:14:46;26.50;57.10
8043;DHT22;4064;48.132;11.366;2022-10-29T12:17:29;26.60;59.90
8043;DHT22;4064;48.132;11.366;2022-10-29T12:22:46;27.20;54.90
8043;DHT22;4064;48.132;11.366;2022-10-29T12:28:20;27.60;59.20
8043;DHT22;4064;48.132;11.366;2022-10-29T12:31:11;27.80;59.20
8043;DHT22;4064;48.132;11.366;2022-10-29T12:34:00;28.00;59.50
8043;DHT22;4064;48.132;11.366;2022-10-29T12:36:40;28.20;59.80
8043;DHT22;4064;48.132;11.366;2022-10-29T12:39:36;28.30;58.70
8043;DHT22;4064;48.132;11.366;2022-10-29T12:42:22;28.40;57.80
8043;DHT22;4064;48.132;11.366;2022-10-29T12:53:03;28.30;59.00
8043;DHT22;4064;48.132;11.366;2022-10-29T12:55:35;28.20;60.40
8043;DHT22;4064;48.132;11.366;2022-10-29T13:01:05;28.10;58.20
8043;DHT22;4064;48.132;11.366;2022-10-29T13:14:19;27.60;60.30
8043;DHT22;4064;48.132;11.366;2022-10-29T13:16:48;27.50;60.60
8043;DHT22;4064;48.132;11.366;2022-10-29T13:19:22;27.30;60.50
8043;DHT22;4064;48.132;11.366;2022-10-29T13:21:54;27.10;61.70
8043;DHT22;4064;48.132;11.366;2022-10-29T13:24:20;27.00;62.50
8043;DHT22;4064;48.132;11.366;2022-10-29T13:32:37;26.20;63.30
8043;DHT22;4064;48.132;11.366;2022-10-29T13:35:13;26.00;63.80
8043;DHT22;4064;48.132;11.366;2022-10-29T13:37:51;25.80;64.30
8043;DHT22;4064;48.132;11.366;2022-10-29T13:45:29;25.30;67.50
8043;DHT22;4064;48.132;11.366;2022-10-29T13:48:04;25.10;67.60
8043;DHT22;4064;48.132;11.366;2022-10-29T13:50:31;25.00;68.50
8043;DHT22;4064;48.132;11.366;2022-10-29T13:52:59;24.80;70.00
8043;DHT22;4064;48.132;11.366;2022-10-29T13:55:26;24.70;71.40
8043;DHT22;4064;48.132;11.366;2022-10-29T13:58:01;24.60;72.10
8043;DHT22;4064;48.132;11.366;2022-10-29T14:00:29;24.50;72.50
8043;DHT22;4064;48.132;11.366;2022-10-29T14:03:05;24.50;73.50
8043;DHT22;4064;48.132;11.366;2022-10-29T14:05:46;24.40;74.20
8043;DHT22;4064;48.132;11.366;2022-10-29T14:11:06;24.30;75.00
8043;DHT22;4064;48.132;11.366;2022-10-29T14:16:12;24.30;77.40
8043;DHT22;4064;48.132;11.366;2022-10-29T14:18:47;24.20;77.40
8043;DHT22;4064;48.132;11.366;2022-10-29T14:24:17;24.10;76.20
8043;DHT22;4064;48.132;11.366;2022-10-29T14:26:43;24.10;75.50
8043;DHT22;4064;48.132;11.366;2022-10-29T14:29:20;24.00;75.00
8043;DHT22;4064;48.132;11.366;2022-10-29T14:32:03;23.90;75.40
8043;DHT22;4064;48.132;11.366;2022-10-29T14:34:29;23.70;74.70
8043;DHT22;4064;48.132;11.366;2022-10-29T14:37:03;23.60;76.20
8043;DHT22;4064;48.132;11.366;2022-10-29T14:39:33;23.50;76.10
8043;DHT22;4064;48.132;11.366;2022-10-29T14:42:00;23.40;77.00
8043;DHT22;4064;48.132;11.366;2022-10-29T14:44:33;23.20;77.70
8043;DHT22;4064;48.132;11.366;2022-10-29T14:47:07;23.10;78.20
8043;DHT22;4064;48.132;11.366;2022-10-29T14:49:44;23.00;79.60
8043;DHT22;4064;48.132;11.366;2022-10-29T14:57:42;22.60;83.00
8043;DHT22;4064;48.132;11.366;2022-10-29T15:00:24;22.40;84.10
8043;DHT22;4064;48.132;11.366;2022-10-29T15:02:50;22.30;85.50
8043;DHT22;4064;48.132;11.366;2022-10-29T15:05:28;22.10;86.80
8043;DHT22;4064;48.132;11.366;2022-10-29T15:10:55;21.80;89.70
8043;DHT22;4064;48.132;11.366;2022-10-29T15:16:02;21.50;90.70
8043;DHT22;4064;48.132;11.366;2022-10-29T15:18:31;21.30;91.20
8043;DHT22;4064;48.132;11.366;2022-10-29T15:20:57;21.20;91.50
8043;DHT22;4064;48.132;11.366;2022-10-29T15:23:33;21.00;92.00
8043;DHT22;4064;48.132;11.366;2022-10-29T15:26:08;20.90;92.70
8043;DHT22;4064;48.132;11.366;2022-10-29T15:28:43;20.80;93.70
8043;DHT22;4064;48.132;11.366;2022-10-29T15:31:29;20.60;94.40
8043;DHT22;4064;48.132;11.366;2022-10-29T15:34:05;20.40;95.30
8043;DHT22;4064;48.132;11.366;2022-10-29T15:36:50;20.20;96.10
8043;DHT22;4064;48.132;11.366;2022-10-29T15:39:27;20.00;96.90
8043;DHT22;4064;48.132;11.366;2022-10-29T15:41:59;19.80;97.90
8043;DHT22;4064;48.132;11.366;2022-10-29T15:44:30;19.70;99.10
8043;DHT22;4064;48.132;11.366;2022-10-29T15:46:58;19.50;99.80
8043;DHT22;4064;48.132;11.366;2022-10-29T15:49:25;19.40;99.90
8043;DHT22;4064;48.132;11.366;2022-10-29T15:51:52;19.20;99.90
8043;DHT22;4064;48.132;11.366;2022-10-29T15:54:18;19.10;99.90
8043;DHT22;4064;48.132;11.366;2022-10-29T15:56:44;18.90;99.90
8043;DHT22;4064;48.132;11.366;2022-10-29T15:59:11;18.80;99.90
8043;DHT22;4064;48.132;11.366;2022-10-29T16:01:38;18.60;99.90
8043;DHT22;4064;48.132;11.366;2022-10-29T16:04:04;18.50;99.90
8043;DHT22;4064;48.132;11.366;2022-10-29T16:06:30;18.40;99.90
8043;DHT22;4064;48.132;11.366;2022-10-29T16:08:57;18.30;99.90
8043;DHT22;4064;48.132;11.366;2022-10-29T16:11:24;18.10;99.90
8043;DHT22;4064;48.132;11.366;2022-10-29T16:13:50;18.00;99.90
8043;DHT22;4064;48.132;11.366;2022-10-29T16:16:18;17.90;99.90
8043;DHT22;4064;48.132;11.366;2022-10-29T16:18:45;17.70;99.90
8043;DHT22;4064;48.132;11.366;2022-10-29T16:21:16;17.60;99.90
8043;DHT22;4064;48.132;11.366;2022-10-29T16:23:42;17.50;99.90
8043;DHT22;4064;48.132;11.366;2022-10-29T16:26:13;17.40;99.90
8043;DHT22;4064;48.132;11.366;2022-10-29T16:28:39;17.30;99.90
8043;DHT22;4064;48.132;11.366;2022-10-29T16:31:17;17.20;99.90
8043;DHT22;4064;48.132;11.366;2022-10-29T16:33:45;17.10;99.90
8043;DHT22;4064;48.132;11.366;2022-10-29T16:36:11;17.00;99.90
8043;DHT22;4064;48.132;11.366;2022-10-29T16:38:37;16.90;99.90
8043;DHT22;4064;48.132;11.366;2022-10-29T16:41:02;16.80;99.90
8043;DHT22;4064;48.132;11.366;2022-10-29T16:43:28;16.80;99.90
8043;DHT22;4064;48.132;11.366;2022-10-29T16:45:54;16.70;99.90
8043;DHT22;4064;48.132;11.366;2022-10-29T16:48:19;16.60;99.90
8043;DHT22;4064;48.132;11.366;2022-10-29T16:50:45;16.50;99.90
8043;DHT22;4064;48.132;11.366;2022-10-29T16:53:11;16.50;99.90
8043;DHT22;4064;48.132;11.366;2022-10-29T16:55:38;16.40;99.90
8043;DHT22;4064;48.132;11.366;2022-10-29T16:58:11;16.30;99.90
8043;DHT22;4064;48.132;11.366;2022-10-29T17:00:37;16.20;99.90
8043;DHT22;4064;48.132;11.366;2022-10-29T17:03:04;16.20;99.90
8043;DHT22;4064;48.132;11.366;2022-10-29T17:05:34;16.00;99.90
8043;DHT22;4064;48.132;11.366;2022-10-29T17:08:00;16.00;99.90
8043;DHT22;4064;48.132;11.366;2022-10-29T17:10:25;15.90;99.90
8043;DHT22;4064;48.132;11.366;2022-10-29T17:12:51;15.80;99.90
8043;DHT22;4064;48.132;11.366;2022-10-29T17:15:16;15.80;99.90
8043;DHT22;4064;48.132;11.366;2022-10-29T17:17:42;15.80;99.90
8043;DHT22;4064;48.132;11.366;2022-10-29T17:20:08;15.70;99.90
8043;DHT22;4064;48.132;11.366;2022-10-29T17:22:35;15.70;99.90
8043;DHT22;4064;48.132;11.366;2022-10-29T17:25:00;15.60;99.90
8043;DHT22;4064;48.132;11.366;2022-10-29T17:27:26;15.60;99.90
8043;DHT22;4064;48.132;11.366;2022-10-29T17:29:52;15.50;99.90
8043;DHT22;4064;48.132;11.366;2022-10-29T17:32:18;15.50;99.90
8043;DHT22;4064;48.132;11.366;2022-10-29T17:34:43;15.40;99.90
8043;DHT22;4064;48.132;11.366;2022-10-29T17:37:09;15.30;99.90
8043;DHT22;4064;48.132;11.366;2022-10-29T17:39:36;15.30;99.90
8043;DHT22;4064;48.132;11.366;2022-10-29T17:42:02;15.20;99.90
8043;DHT22;4064;48.132;11.366;2022-10-29T17:44:28;15.20;99.90
8043;DHT22;4064;48.132;11.366;2022-10-29T17:46:55;15.10;99.90
8043;DHT22;4064;48.132;11.366;2022-10-29T17:49:21;15.10;99.90
8043;DHT22;4064;48.132;11.366;2022-10-29T17:51:46;15.10;99.90
8043;DHT22;4064;48.132;11.366;2022-10-29T17:54:14;15.00;99.90
8043;DHT22;4064;48.132;11.366;2022-10-29T17:56:39;15.00;99.90
8043;DHT22;4064;48.132;11.366;2022-10-29T17:59:05;15.00;99.90
8043;DHT22;4064;48.132;11.366;2022-10-29T18:01:30;15.00;99.90
8043;DHT22;4064;48.132;11.366;2022-10-29T18:04:03;15.00;99.90
8043;DHT22;4064;48.132;11.366;2022-10-29T18:06:29;15.00;99.90
8043;DHT22;4064;48.132;11.366;2022-10-29T18:08:55;14.90;99.90
8043;DHT22;4064;48.132;11.366;2022-10-29T18:11:21;14.90;99.90
8043;DHT22;4064;48.132;11.366;2022-10-29T18:13:48;15.00;99.90
8043;DHT22;4064;48.132;11.366;2022-10-29T18:16:16;14.90;99.90
8043;DHT22;4064;48.132;11.366;2022-10-29T18:18:46;14.90;99.90
8043;DHT22;4064;48.132;11.366;2022-10-29T18:21:17;14.80;99.90
8043;DHT22;4064;48.132;11.366;2022-10-29T18:23:43;14.70;99.90
8043;DHT22;4064;48.132;11.366;2022-10-29T18:28:44;14.60;99.90
8043;DHT22;4064;48.132;11.366;2022-10-29T18:31:09;14.60;99.90
8043;DHT22;4064;48.132;11.366;2022-10-29T18:33:35;14.60;99.90
8043;DHT22;4064;48.132;11.366;2022-10-29T18:36:01;14.50;99.90